Accueil
METAR-TAF:

METAR-TAF

Aéroports :

Tchita, Russie

latitude: 52-05N, longitude: 113-29E, altitude: 685 m

Observation

Le bulletin a été fait il y a 21 minutes, à 04:00 UTC
Vent 4 kt de sud/sud-est, variant entre est et sud
Température 10°C
Humidité 37%
Pression 1019 hPa
Visibilité 10 km ou plus

METAR: UIAA 190400Z 16002MPS 100V190 9999 NSC 10/M04 Q1019 R29/70D NOSIG RMK QFE706/0941

Heure: 13:21 (04:21 UTC)

Prévision

Le bulletin a été fait il y a 2 heures et 21 minutes, à 02:00 UTC
Prévision valable du 19 à 03 UTC au 20 à 03 UTC
Vent 6 kt de est
Visibilité 10 km ou plus

TAF: UIAA 190200Z 1903/2003 10003MPS 9999 NSC

Observations et prévisions météorologiques de plus de 4000 aéroports (messages METAR et TAF).

Les stations disponibles sont représentées par des disques jaunes et rouges sur la carte.

Passer la souris dessus pour voir le nom de la station.

Cliquer dessus pour voir les observations et prévisions météorologiques.

Pour changer de carte: cliquez sur les boutons verts avec une croix noire pour zoomer, sur le bouton vert avec un tiret pour effectuer un zoom arrière, ou sur les flèches vertes pour les cartes adjacentes.


METAR-TAF: